AirNav   Air Wisconsin pilot careers
 
 1287 users online  

52NC Epley Airport
Jacksonville, North Carolina, USA

GOING TO JACKSONVILLE?


FAA INFORMATION EFFECTIVE 12 SEPTEMBER 2019

Location

FAA Identifier: 52NC
Lat/Long: 34-50-40.4300N 077-15-58.3200W
34-50.673833N 077-15.972000W
34.8445639,-77.2662000
(estimated)
Elevation: 43 ft. / 13 m (estimated)
Variation: 09W (2000)
From city: 10 miles NE of JACKSONVILLE, NC
Time zone: UTC -4 (UTC -5 during Standard Time)
Zip code: 28555

Airport Operations

Airport use: Private use. Permission required prior to landing
Activation date: 05/2000
Control tower: no
ARTCC: WASHINGTON CENTER
FSS: RALEIGH FLIGHT SERVICE STATION
Attendance: UNATNDD
Wind indicator: yes
Segmented circle: no

Airport Communications

WX ASOS at NCA (12 nm SW): 288.325
WX AWOS-3PT at OAJ (17 nm W): PHONE 910-324-5233
WX ASOS at EWN (18 nm NE): 118.525 (252-514-2086)

Nearby radio navigation aids

VOR radial/distance  VOR name  Freq  Var
EWNr226/17.5NEW BERN VOR/DME113.6008W
ISOr161/34.7KINSTON VORTAC109.6005W

 
NDB name  Hdg/Dist  Freq  Var  ID
KATFI229/14.036208WEW . .--
DIXON037/19.019808WDIW -.. .. .--

Airport Services

Runway Information

Runway 7/25

Dimensions: 2400 x 75 ft. / 732 x 23 m
Surface: turf
RUNWAY 7  RUNWAY 25
Traffic pattern: rightleft
Obstructions: none50 ft. trees, 500 ft. from runway

Airport Ownership and Management from official FAA records

Ownership: Privately-owned
Owner: STEVE EPLEY
265 DEPPE ROAD
MAYSVILLE, NC 28555
Phone 910-330-6745
Manager: LINDA EPLEY
265 DEPPE ROAD
MAYSVILLE, NC 28555
Phone 910-548-8942

Airport Operational Statistics

Aircraft based on the field: 3
Single engine airplanes: 3
    

Additional Remarks

FOR CD CTC WASHINGTON ARTCC AT 703-771-3587.

Instrument Procedures

There are no published instrument procedures at 52NC.

Some nearby airports with instrument procedures:

KNCA - New River Marine Corps Air Station (H) (McCutcheon Field) (12 nm SW)
KOAJ - Albert J Ellis Airport (17 nm W)
KEWN - Coastal Carolina Regional Airport (18 nm NE)
KNKT - Cherry Point Marine Corps Air Station (Cunningham Field) (19 nm E)
KMRH - Michael J Smith Field Airport (31 nm E)
 
Loc | Ops | Rwys | IFR | FBO | Links
Com | Nav | Svcs | Stats | Notes
Area around 52NC (Epley Airport)
 
Road maps at: MapQuest Bing Google
 
Aerial photo
No photo
 
Sectional chart

 
Airport distance calculator
Flying to Epley Airport? Find the distance to fly.

From to 52NC

Sunrise and sunset
Times for 19-Sep-2019
 Local
(UTC-4)
 Zulu
(UTC)
Morning civil twilight06:3110:31
Sunrise06:5610:56
Sunset19:1023:10
Evening civil twilight19:3523:35

Current date and time
Zulu (UTC)  19-Sep-2019 13:35:19
Local (UTC-4)  19-Sep-2019 09:35:19
 
METAR
KNCA 
12nm SW 
191256Z 01010KT 10SM CLR 18/12 A3022 RMK AO2 SLP235 T01780122 $
KNJM 
16nm SE 
191257Z AUTO 03013G20KT 10SM CLR 21/13 A3021 RMK AO2 SLP232 T02060133 TSNO $
KEWN 
17nm NE 
191254Z 02009KT 10SM OVC060 18/14 A3024 RMK AO2 SLP238 T01780139
KOAJ 
17nm W 
191256Z 01009KT 10SM CLR 17/13 A3024 RMK AO2 SLP241 T01720128
KNKT 
20nm E 
191254Z 02010KT 10SM BKN060 20/14 A3023 RMK AO2 SLP232 T02000139
TAF
KNCA 
12nm SW 
1909/2009 03010KT 9999 SKC QNH3015INS FM191500 03010G25KT 9999 FEW050 QNH3015INS T23/1918Z T16/2009Z
KEWN 
17nm NE 
191128Z 1912/2012 02008KT P6SM SCT050 TEMPO 1912/1915 BKN050 FM191500 05011G19KT P6SM SCT050 FM192300 04005KT P6SM SKC
KOAJ 
17nm W 
191128Z 1912/2012 02008KT P6SM FEW050 FM191500 04011G19KT P6SM SCT050 FM192300 04005KT P6SM SKC AMD LTD TO CLD VIS AND WIND
KNKT 
20nm E 
1909/2009 03010KT 9999 SKC QNH3015INS FM191500 03010G25KT 9999 FEW050 QNH3015INS T23/1918Z T16/2009Z
NOTAMs
Click for the latest NOTAMs
NOTAMs are issued by the DoD/FAA and will open in a separate window not controlled by AirNav.

 

 
 

Would you like to see your business listed on this page?

 If your business provides an interesting product or service to pilots, flight crews, aircraft, or users of the Epley Airport, you should consider listing it here.  To start the listing process, click on the button below
 
Add a business
 

Other Pages about Epley Airport

Update a link
 
Copyright © AirNav, LLC. All rights reserved. Privacy Policy  Contact